createdAt,value
2023-02-05T00:02:07.356Z,81.33
2023-02-05T00:12:10.511Z,81.73
2023-02-05T00:22:14.907Z,82.55
2023-02-05T00:32:17.967Z,82.96
2023-02-05T00:42:22.924Z,83.66
2023-02-05T00:52:26.074Z,85.59
2023-02-05T01:02:30.809Z,87.66
2023-02-05T01:12:34.343Z,87.96
2023-02-05T01:22:38.821Z,89.13
2023-02-05T01:32:42.835Z,92.03
2023-02-05T01:42:47.930Z,92.51
2023-02-05T01:52:52.040Z,93.91
2023-02-05T02:02:57.404Z,94.58
2023-02-05T02:13:00.748Z,94.88
2023-02-05T02:23:23.540Z,94.30
2023-02-05T02:33:30.942Z,96.10
2023-02-05T02:43:42.146Z,96.35
2023-02-05T02:53:51.845Z,97.65
2023-02-05T03:04:00.610Z,98.51
2023-02-05T03:14:05.450Z,99.04
2023-02-05T03:24:13.882Z,98.38
2023-02-05T03:34:31.252Z,100.00
2023-02-05T03:44:59.050Z,98.60
2023-02-05T03:55:11.653Z,98.79
2023-02-05T04:05:17.068Z,98.45
2023-02-05T04:15:21.910Z,97.92
2023-02-05T04:25:29.396Z,97.88
2023-02-05T04:35:38.031Z,98.41
2023-02-05T04:46:41.729Z,98.24
2023-02-05T04:56:47.909Z,98.17
2023-02-05T05:06:50.903Z,99.20
2023-02-05T05:16:55.336Z,99.15
2023-02-05T05:26:58.493Z,99.51
2023-02-05T05:37:03.017Z,100.00
2023-02-05T05:47:06.063Z,100.00
2023-02-05T05:57:11.100Z,100.00
2023-02-05T06:07:14.239Z,100.00
2023-02-05T06:17:18.868Z,100.00
2023-02-05T06:27:22.182Z,100.00
2023-02-05T06:37:45.469Z,100.00
2023-02-05T06:47:49.873Z,100.00
2023-02-05T06:57:54.317Z,100.00
2023-02-05T07:07:57.441Z,100.00
2023-02-05T07:18:02.116Z,100.00
2023-02-05T07:28:06.099Z,100.00
2023-02-05T07:38:11.004Z,100.00
2023-02-05T07:48:13.973Z,100.00
2023-02-05T07:58:21.271Z,100.00
2023-02-05T08:08:26.501Z,100.00
2023-02-05T08:18:31.113Z,100.00
2023-02-05T08:28:34.168Z,100.00
2023-02-05T08:38:38.704Z,100.00
2023-02-05T08:48:41.826Z,100.00
2023-02-05T08:58:47.497Z,100.00
2023-02-05T09:08:50.624Z,100.00
2023-02-05T09:18:56.940Z,100.00
2023-02-05T09:28:59.996Z,100.00
2023-02-05T09:39:17.453Z,100.00
2023-02-05T09:49:32.014Z,100.00
2023-02-05T09:59:37.067Z,100.00
2023-02-05T10:10:08.254Z,100.00
2023-02-05T10:20:32.072Z,100.00
2023-02-05T10:30:41.447Z,100.00
2023-02-05T10:40:47.104Z,100.00
2023-02-05T10:50:56.364Z,100.00
2023-02-05T11:01:01.607Z,100.00
2023-02-05T11:11:06.439Z,100.00
2023-02-05T11:21:12.566Z,100.00
2023-02-05T11:31:25.977Z,100.00
2023-02-05T11:41:48.254Z,100.00
2023-02-05T11:51:55.567Z,100.00
2023-02-05T12:02:29.375Z,100.00
2023-02-05T12:12:44.050Z,100.00
2023-02-05T12:23:14.922Z,100.00
2023-02-05T12:33:32.482Z,100.00
2023-02-05T12:43:40.203Z,100.00
2023-02-05T12:53:57.609Z,100.00
2023-02-05T13:04:03.690Z,100.00
2023-02-05T13:14:15.429Z,100.00
2023-02-05T13:24:48.780Z,100.00
2023-02-05T13:34:54.947Z,100.00
2023-02-05T13:45:28.971Z,100.00
2023-02-05T13:55:48.815Z,100.00
2023-02-05T14:05:53.168Z,100.00
2023-02-05T14:15:57.566Z,100.00
2023-02-05T14:26:12.046Z,100.00
2023-02-05T14:36:43.458Z,100.00
2023-02-05T14:46:58.201Z,100.00
2023-02-05T14:57:18.798Z,100.00
2023-02-05T15:07:28.015Z,100.00
2023-02-05T15:17:50.908Z,100.00
2023-02-05T15:28:00.660Z,100.00
2023-02-05T15:38:21.429Z,100.00
2023-02-05T15:48:30.769Z,100.00
2023-02-05T15:58:34.030Z,100.00
2023-02-05T16:08:38.455Z,99.28
2023-02-05T16:18:46.876Z,98.80
2023-02-05T16:28:55.512Z,98.18
2023-02-05T16:39:02.883Z,97.06
2023-02-05T16:49:30.295Z,95.59
2023-02-05T16:59:38.958Z,96.06
2023-02-05T17:09:44.049Z,95.09
2023-02-05T17:20:04.411Z,94.95
2023-02-05T17:30:17.425Z,94.77
2023-02-05T17:40:21.244Z,92.21
2023-02-05T17:50:25.730Z,91.91
2023-02-05T18:00:33.090Z,92.55
2023-02-05T18:10:38.040Z,92.02
2023-02-05T18:20:41.154Z,92.26
2023-02-05T18:30:46.027Z,92.77
2023-02-05T18:40:49.252Z,92.73
2023-02-05T18:50:53.832Z,92.84
2023-02-05T19:00:57.320Z,91.43
2023-02-05T19:11:07.472Z,87.51
2023-02-05T19:21:12.044Z,85.77
2023-02-05T19:31:17.204Z,85.81
2023-02-05T19:41:22.383Z,85.33
2023-02-05T19:51:27.057Z,84.78
2023-02-05T20:01:32.442Z,86.75
2023-02-05T20:11:37.156Z,87.46
2023-02-05T20:21:40.609Z,86.72
2023-02-05T20:31:48.029Z,85.69
2023-02-05T20:52:33.043Z,86.07
2023-02-05T21:02:49.888Z,86.07
2023-02-05T21:13:07.052Z,85.43
2023-02-05T21:23:16.047Z,85.71
2023-02-05T21:33:26.924Z,85.38
2023-02-05T21:43:35.894Z,84.70
2023-02-05T21:53:45.879Z,84.86
2023-02-05T22:03:53.666Z,84.73
2023-02-05T22:14:06.578Z,84.91
2023-02-05T22:24:19.608Z,84.81
2023-02-05T22:34:33.172Z,84.12
2023-02-05T22:44:39.794Z,84.04
2023-02-05T22:55:06.536Z,85.23
2023-02-05T23:05:20.023Z,85.15
2023-02-05T23:15:26.336Z,84.89
2023-02-05T23:25:31.935Z,85.44
2023-02-05T23:35:40.046Z,84.78
2023-02-05T23:56:22.866Z,83.64
